Time;durP1;ratioP1;P1;durP2;ratioP2;P2;SDS_P1;SDS_P2;PMS_P1;PMS_P2;Temp;Humidity;BMP_temperature;BMP_pressure;BME280_temperature;BME280_humidity;BME280_pressure;Samples;Min_cycle;Max_cycle;Signal;HPM_P1;HPM_P2
2021/05/27 00:00:22;;;;;;;1.03;0.70;;;;;;;12.57;65.80;95505.84;6963323;28;20231;-77
2021/05/27 00:03:43;;;;;;;0.67;0.67;;;;;;;12.64;66.51;95503.44;6945197;28;20279;-78
2021/05/27 00:07:03;;;;;;;1.87;1.60;;;;;;;12.68;66.60;95494.19;6946540;28;20223;-76
2021/05/27 00:10:26;;;;;;;2.13;0.67;;;;;;;12.70;66.97;95502.88;6966993;28;20215;-77
2021/05/27 00:13:47;;;;;;;0.77;0.60;;;;;;;12.66;67.30;95505.00;6962724;28;20216;-77
2021/05/27 00:17:07;;;;;;;0.80;0.60;;;;;;;12.63;67.58;95499.09;6967563;28;20251;-77
2021/05/27 00:20:30;;;;;;;0.60;0.60;;;;;;;12.48;68.03;95507.53;6970443;28;20223;-77
2021/05/27 00:23:50;;;;;;;0.73;0.60;;;;;;;12.37;68.65;95502.34;6954815;28;20227;-77
2021/05/27 00:27:11;;;;;;;0.60;0.60;;;;;;;12.27;68.78;95512.16;6968503;28;20216;-77
2021/05/27 00:30:36;;;;;;;0.73;0.50;;;;;;;12.22;69.54;95513.59;6978269;28;20216;-77
2021/05/27 00:33:56;;;;;;;3.13;0.70;;;;;;;12.27;69.97;95522.81;6966751;28;20229;-78
2021/05/27 00:37:17;;;;;;;0.60;0.60;;;;;;;12.30;70.22;95511.91;6967022;28;20251;-77
2021/05/27 00:40:38;;;;;;;0.80;0.57;;;;;;;12.24;70.00;95512.44;6978176;28;20222;-77
2021/05/27 00:44:00;;;;;;;1.00;0.60;;;;;;;12.17;70.02;95523.81;6969324;28;20218;-78
2021/05/27 00:47:21;;;;;;;0.50;0.50;;;;;;;12.10;70.17;95528.00;6933983;28;20602;-78
2021/05/27 00:50:44;;;;;;;0.53;0.53;;;;;;;12.11;70.77;95513.72;6950724;28;20215;-77
2021/05/27 00:54:05;;;;;;;0.70;0.70;;;;;;;12.08;70.74;95517.47;6945581;28;20233;-77
2021/05/27 00:57:33;;;;;;;0.70;0.70;;;;;;;12.08;70.96;95524.63;6961682;28;20227;-77
2021/05/27 01:00:56;;;;;;;0.77;0.67;;;;;;;12.11;71.61;95519.03;6960926;28;20221;-78
2021/05/27 01:04:18;;;;;;;1.67;0.63;;;;;;;12.18;71.95;95526.31;6938119;28;20280;-77
2021/05/27 01:07:38;;;;;;;1.53;0.73;;;;;;;12.25;71.68;95521.28;6950910;28;20249;-78
2021/05/27 01:10:59;;;;;;;0.70;0.70;;;;;;;12.28;71.33;95531.63;6952720;28;20219;-77
2021/05/27 01:18:12;;;;;;;1.10;0.60;;;;;;;12.13;71.72;95541.00;6972332;28;20226;-77
2021/05/27 01:21:33;;;;;;;0.50;0.50;;;;;;;12.13;72.05;95528.56;6962300;28;20217;-78
2021/05/27 01:24:56;;;;;;;1.23;0.67;;;;;;;12.12;72.03;95529.53;6949364;28;20896;-77
2021/05/27 01:28:17;;;;;;;0.73;0.60;;;;;;;12.04;71.80;95529.38;6952680;28;20700;-77
2021/05/27 01:31:37;;;;;;;1.07;0.60;;;;;;;12.03;71.86;95528.53;6966995;28;20276;-77
2021/05/27 01:34:58;;;;;;;0.93;0.70;;;;;;;12.07;72.12;95529.13;6962480;28;20231;-78
2021/05/27 01:38:28;;;;;;;0.90;0.60;;;;;;;12.09;71.84;95529.81;6955054;28;20222;-77
2021/05/27 01:41:50;;;;;;;0.70;0.70;;;;;;;12.06;71.51;95531.91;6966077;28;20256;-79
2021/05/27 01:45:11;;;;;;;0.70;0.70;;;;;;;12.01;71.32;95527.00;6958939;28;20219;-77
2021/05/27 01:48:32;;;;;;;1.90;0.70;;;;;;;11.89;71.22;95528.09;6950150;28;20206;-78
2021/05/27 01:51:53;;;;;;;0.97;0.60;;;;;;;11.76;71.58;95533.69;6961927;28;20207;-77
2021/05/27 01:55:13;;;;;;;1.07;0.70;;;;;;;11.76;71.88;95528.38;6957120;28;20273;-77
2021/05/27 01:58:34;;;;;;;1.17;1.00;;;;;;;11.76;72.24;95530.19;6955928;28;20226;-77
2021/05/27 02:01:54;;;;;;;0.60;0.60;;;;;;;11.78;72.19;95530.88;6970571;28;20219;-78
2021/05/27 02:05:15;;;;;;;2.00;0.60;;;;;;;11.86;72.17;95531.03;6943913;28;20246;-78
2021/05/27 02:09:07;;;;;;;0.60;0.60;;;;;;;11.90;71.58;95535.13;6957557;28;20297;-77
2021/05/27 02:12:19;;;;;;;1.37;0.80;;;;;;;11.92;71.70;95538.50;6954585;28;20220;-79
2021/05/27 02:15:39;;;;;;;0.83;0.80;;;;;;;11.96;71.71;95534.56;6965774;28;20308;-78
2021/05/27 02:19:01;;;;;;;0.80;0.80;;;;;;;11.98;71.57;95532.59;6965720;28;20258;-78
2021/05/27 02:22:21;;;;;;;1.27;0.97;;;;;;;11.95;71.31;95532.88;6952979;28;20230;-77
2021/05/27 02:25:41;;;;;;;0.90;0.70;;;;;;;12.00;71.54;95527.97;6948391;28;20246;-78
2021/05/27 02:29:03;;;;;;;0.80;0.80;;;;;;;11.95;71.00;95533.72;6956107;28;20219;-77
2021/05/27 02:32:23;;;;;;;1.07;0.60;;;;;;;11.88;70.77;95532.56;6963358;28;20356;-78
2021/05/27 02:35:44;;;;;;;0.80;0.50;;;;;;;11.90;71.06;95527.97;6953905;28;20651;-78
2021/05/27 02:39:05;;;;;;;1.20;0.80;;;;;;;11.92;71.16;95533.97;6970027;28;20744;-77
2021/05/27 02:42:28;;;;;;;0.70;0.70;;;;;;;11.90;71.09;95532.44;6977359;28;20244;-77
2021/05/27 02:45:49;;;;;;;0.70;0.70;;;;;;;11.91;71.11;95531.47;6971492;28;20613;-77
2021/05/27 02:49:09;;;;;;;1.67;0.90;;;;;;;11.91;70.78;95536.81;6944111;28;20819;-77
2021/05/27 02:52:30;;;;;;;1.23;0.90;;;;;;;11.85;71.00;95543.50;6955537;28;20329;-78
2021/05/27 02:55:51;;;;;;;0.70;0.70;;;;;;;11.87;71.11;95538.88;6950156;28;20238;-78
2021/05/27 02:59:14;;;;;;;0.80;0.70;;;;;;;11.91;71.04;95532.31;6945484;28;20298;-77
2021/05/27 03:02:34;;;;;;;0.70;0.70;;;;;;;11.91;70.97;95534.97;6958368;28;20650;-77
2021/05/27 03:05:55;;;;;;;1.07;0.83;;;;;;;11.84;70.58;95533.00;6961467;28;20704;-78
2021/05/27 03:09:15;;;;;;;0.83;0.80;;;;;;;11.76;71.00;95533.69;6970929;28;20361;-77
2021/05/27 03:12:36;;;;;;;0.70;0.70;;;;;;;11.67;71.17;95525.66;6971202;28;20214;-77
2021/05/27 03:15:56;;;;;;;1.60;0.83;;;;;;;11.62;71.76;95518.06;6951524;28;20294;-77
2021/05/27 03:19:16;;;;;;;1.17;0.80;;;;;;;11.58;71.55;95522.81;6970265;28;20699;-78
2021/05/27 03:22:37;;;;;;;0.70;0.70;;;;;;;11.55;72.02;95528.41;6977731;28;20607;-77
2021/05/27 03:25:58;;;;;;;0.97;0.77;;;;;;;11.57;72.84;95529.09;6973116;28;20317;-77
2021/05/27 03:29:19;;;;;;;0.93;0.80;;;;;;;11.58;72.37;95525.47;6966105;28;20215;-77
2021/05/27 03:32:40;;;;;;;0.80;0.80;;;;;;;11.57;72.50;95539.75;6974935;28;20605;-78
2021/05/27 03:36:05;;;;;;;1.43;0.90;;;;;;;11.61;72.98;95535.88;6975243;28;20279;-77
2021/05/27 03:39:28;;;;;;;2.60;1.07;;;;;;;11.69;73.22;95534.31;6967738;28;20315;-78
2021/05/27 03:42:55;;;;;;;1.10;0.83;;;;;;;11.73;74.01;95528.63;6965209;28;20221;-77
2021/05/27 03:46:18;;;;;;;2.57;0.90;;;;;;;11.77;73.71;95521.22;6952828;28;20215;-78
2021/05/27 03:49:39;;;;;;;2.20;1.20;;;;;;;11.80;74.20;95518.28;6948714;28;20362;-77
2021/05/27 03:53:04;;;;;;;1.23;0.90;;;;;;;11.78;73.35;95521.06;6947665;28;20293;-77
2021/05/27 03:56:24;;;;;;;0.83;0.70;;;;;;;11.72;73.15;95526.91;6959961;28;20214;-77
2021/05/27 04:03:24;;;;;;;1.43;0.90;;;;;;;11.60;73.01;95528.00;6973338;28;20297;-78
2021/05/27 04:10:24;;;;;;;1.30;1.20;;;;;;;11.48;73.33;95527.25;6966354;28;20222;-78
2021/05/27 04:13:45;;;;;;;2.03;1.20;;;;;;;11.49;73.54;95526.28;6957301;28;20268;-77
2021/05/27 04:17:05;;;;;;;2.30;1.13;;;;;;;11.53;73.84;95527.69;6956399;28;20246;-77
2021/05/27 04:20:31;;;;;;;1.83;1.10;;;;;;;11.55;73.78;95533.75;6959784;28;20730;-77
2021/05/27 04:23:52;;;;;;;1.40;1.10;;;;;;;11.58;73.71;95527.28;6947237;28;20227;-78
2021/05/27 04:27:12;;;;;;;1.77;1.03;;;;;;;11.58;73.46;95538.78;6946728;28;20219;-78
2021/05/27 04:31:08;;;;;;;1.90;1.23;;;;;;;11.61;73.50;95535.00;6970545;28;20217;-77
2021/05/27 04:34:13;;;;;;;18.13;14.83;;;;;;;11.58;73.47;95546.75;6962659;28;20713;-77
2021/05/27 04:37:34;;;;;;;6.37;5.47;;;;;;;11.55;73.11;95552.34;6958538;28;20206;-77
2021/05/27 04:40:54;;;;;;;13.17;11.77;;;;;;;11.57;73.45;95549.53;6956747;28;20214;-77
2021/05/27 04:44:14;;;;;;;9.83;8.90;;;;;;;11.60;73.78;95558.13;6965487;28;20218;-77
2021/05/27 04:47:35;;;;;;;1.63;1.50;;;;;;;11.62;73.46;95552.63;6964864;28;20271;-77
2021/05/27 04:50:55;;;;;;;1.73;1.30;;;;;;;11.61;73.54;95554.47;6951313;28;20690;-77
2021/05/27 04:54:16;;;;;;;1.73;1.10;;;;;;;11.63;73.48;95565.81;6951267;28;20357;-77
2021/05/27 04:57:38;;;;;;;1.43;0.90;;;;;;;11.61;73.36;95565.13;6957155;28;20222;-77
2021/05/27 05:01:02;;;;;;;1.53;1.27;;;;;;;11.62;73.28;95569.44;6966648;28;20227;-78
2021/05/27 05:04:22;;;;;;;1.20;1.00;;;;;;;11.56;72.88;95571.81;6968136;28;20207;-78
2021/05/27 05:07:43;;;;;;;1.70;1.10;;;;;;;11.49;73.11;95571.50;6949940;28;20238;-77
2021/05/27 05:11:04;;;;;;;2.57;1.20;;;;;;;11.49;73.34;95566.19;6961561;28;20281;-77
2021/05/27 05:14:27;;;;;;;3.63;1.50;;;;;;;11.54;73.79;95571.09;6959932;28;20596;-78
2021/05/27 05:17:51;;;;;;;1.53;1.10;;;;;;;11.58;74.40;95572.50;6952308;28;20234;-78
2021/05/27 05:21:14;;;;;;;3.37;1.10;;;;;;;11.59;74.03;95579.50;6954605;28;20278;-78
2021/05/27 05:24:34;;;;;;;2.30;1.23;;;;;;;11.61;73.42;95577.56;6946462;28;20716;-77
2021/05/27 05:27:55;;;;;;;2.53;1.40;;;;;;;11.67;73.10;95577.00;6971686;28;20214;-77
2021/05/27 05:31:18;;;;;;;1.30;1.00;;;;;;;11.68;72.37;95578.69;6969425;28;20222;-76
2021/05/27 05:34:38;;;;;;;2.87;1.60;;;;;;;11.72;72.28;95576.63;6951067;28;20225;-71
2021/05/27 05:37:59;;;;;;;2.40;1.20;;;;;;;11.72;72.00;95593.41;6952283;28;20238;-79
2021/05/27 05:41:20;;;;;;;2.03;0.97;;;;;;;11.74;71.77;95598.63;6960261;28;20222;-78
2021/05/27 05:44:41;;;;;;;2.07;1.00;;;;;;;11.66;71.57;95593.13;6965005;28;20226;-80
2021/05/27 05:48:03;;;;;;;1.83;1.10;;;;;;;11.65;71.71;95600.25;6966797;28;20269;-78
2021/05/27 05:51:24;;;;;;;2.00;1.10;;;;;;;11.59;71.25;95593.66;6964535;28;20234;-80
2021/05/27 05:54:44;;;;;;;2.50;2.10;;;;;;;11.48;70.99;95608.84;6969387;28;20219;-80
2021/05/27 05:58:05;;;;;;;2.23;1.20;;;;;;;11.42;72.28;95610.22;6960418;28;20235;-79
2021/05/27 06:01:26;;;;;;;2.67;1.33;;;;;;;11.28;72.36;95613.25;6961453;28;20238;-80
2021/05/27 06:04:46;;;;;;;1.87;1.03;;;;;;;11.26;72.97;95614.34;6929713;28;20220;-80
2021/05/27 06:08:06;;;;;;;2.93;1.30;;;;;;;11.19;73.42;95620.19;6936058;28;20304;-80
2021/05/27 06:11:29;;;;;;;1.27;1.13;;;;;;;11.22;74.12;95632.38;6953954;28;20270;-79
2021/05/27 06:14:50;;;;;;;2.13;1.37;;;;;;;11.31;74.18;95644.06;6953197;28;20586;-80
2021/05/27 06:18:16;;;;;;;1.30;1.20;;;;;;;11.39;74.92;95644.22;6954923;28;20723;-79
2021/05/27 06:21:36;;;;;;;2.70;1.70;;;;;;;11.49;75.27;95650.44;6956871;28;20294;-79
2021/05/27 06:24:57;;;;;;;3.40;1.50;;;;;;;11.56;75.16;95648.94;6959405;28;20210;-79
2021/05/27 06:28:17;;;;;;;2.63;1.50;;;;;;;11.58;74.81;95650.47;6952032;28;20242;-80
2021/05/27 06:31:45;;;;;;;2.50;1.50;;;;;;;11.59;74.27;95662.81;6943431;28;20214;-80
2021/05/27 06:35:07;;;;;;;2.47;1.47;;;;;;;11.63;74.80;95666.88;6955999;28;20216;-79
2021/05/27 06:38:30;;;;;;;11.27;9.60;;;;;;;11.68;74.22;95663.81;6969210;28;20258;-78
2021/05/27 06:41:50;;;;;;;2.00;1.50;;;;;;;11.65;74.20;95664.09;6965944;28;20231;-80
2021/05/27 06:45:12;;;;;;;1.67;1.40;;;;;;;11.60;73.93;95668.97;6944187;28;20218;-80
2021/05/27 06:48:35;;;;;;;1.53;1.43;;;;;;;11.56;73.87;95671.06;6947446;28;20238;-79
2021/05/27 06:51:56;;;;;;;1.93;1.47;;;;;;;11.52;73.70;95682.06;6957772;28;20256;-79
2021/05/27 06:55:19;;;;;;;1.87;1.50;;;;;;;11.44;73.76;95669.44;6944910;28;20226;-80
2021/05/27 06:58:39;;;;;;;2.10;1.63;;;;;;;11.38;74.06;95677.94;6982573;28;20333;-78
2021/05/27 07:02:00;;;;;;;2.27;2.07;;;;;;;11.36;74.90;95684.38;6980351;28;20286;-79
2021/05/27 07:05:20;;;;;;;2.60;1.47;;;;;;;11.33;75.44;95679.31;6949929;28;20254;-79
2021/05/27 07:08:43;;;;;;;6.07;1.97;;;;;;;11.30;75.25;95687.56;6972971;28;20235;-77
2021/05/27 07:12:04;;;;;;;1.30;1.20;;;;;;;11.30;75.08;95700.84;6951021;28;20211;-79
2021/05/27 07:15:26;;;;;;;2.80;1.53;;;;;;;11.26;74.63;95694.97;6976317;28;20245;-78
2021/05/27 07:18:46;;;;;;;2.63;1.73;;;;;;;11.27;74.75;95703.75;6983632;28;20233;-78
2021/05/27 07:22:07;;;;;;;1.63;1.53;;;;;;;11.30;74.84;95692.88;6977367;28;20223;-78
2021/05/27 07:25:27;;;;;;;2.10;1.77;;;;;;;11.36;75.20;95700.34;6992172;28;20218;-79
2021/05/27 07:28:48;;;;;;;3.07;2.07;;;;;;;11.31;73.98;95710.53;6982470;28;20212;-78
2021/05/27 07:32:08;;;;;;;6.13;1.67;;;;;;;11.23;74.69;95719.13;6987669;28;20207;-80
2021/05/27 07:35:29;;;;;;;3.93;2.20;;;;;;;11.14;74.73;95717.25;6994283;28;20246;-81
2021/05/27 07:38:50;;;;;;;3.73;2.00;;;;;;;11.03;75.08;95723.44;6979287;28;20208;-80
2021/05/27 07:42:10;;;;;;;1.60;1.50;;;;;;;10.97;75.26;95726.59;6982796;28;20198;-79
2021/05/27 07:45:31;;;;;;;3.33;1.80;;;;;;;10.84;75.24;95722.44;6990083;28;20226;-81
2021/05/27 07:48:51;;;;;;;4.07;1.80;;;;;;;10.73;75.25;95729.47;6993974;28;20247;-81
2021/05/27 07:52:12;;;;;;;3.87;1.67;;;;;;;10.77;76.46;95728.25;6960859;28;20223;-81
2021/05/27 07:55:35;;;;;;;2.83;1.93;;;;;;;10.81;75.97;95730.69;6971565;28;20228;-81
2021/05/27 07:58:55;;;;;;;6.53;1.90;;;;;;;10.84;75.70;95735.72;6985302;28;20230;-80
2021/05/27 08:02:16;;;;;;;1.63;1.53;;;;;;;10.91;76.15;95731.59;6971416;28;20219;-80
2021/05/27 08:05:38;;;;;;;2.63;1.67;;;;;;;10.95;75.94;95731.22;6978680;28;20222;-82
2021/05/27 08:09:01;;;;;;;21.17;16.20;;;;;;;11.08;76.38;95739.00;6986966;28;20219;-80
2021/05/27 08:12:22;;;;;;;1.60;1.43;;;;;;;11.17;75.92;95746.22;6980889;28;20258;-81
2021/05/27 08:15:44;;;;;;;2.27;1.40;;;;;;;11.06;74.32;95749.78;6991420;28;20210;-81
2021/05/27 08:19:05;;;;;;;1.63;1.40;;;;;;;10.97;74.26;95755.00;6997725;28;20230;-81
2021/05/27 08:22:29;;;;;;;4.50;1.80;;;;;;;10.87;74.20;95743.44;6990709;28;20218;-81
2021/05/27 08:25:50;;;;;;;3.10;1.80;;;;;;;10.84;74.56;95746.34;6980447;28;20229;-79
2021/05/27 08:29:10;;;;;;;6.23;2.67;;;;;;;10.81;74.96;95747.47;6981407;28;20329;-81
2021/05/27 08:32:33;;;;;;;2.47;2.10;;;;;;;10.82;75.05;95741.16;6982353;28;20958;-82
2021/05/27 08:35:55;;;;;;;2.73;1.50;;;;;;;10.84;75.22;95735.72;6991848;28;20215;-82
2021/05/27 08:39:20;;;;;;;2.63;1.73;;;;;;;10.87;75.49;95736.31;6970071;28;20325;-81
2021/05/27 08:42:44;;;;;;;1.93;1.67;;;;;;;10.92;75.80;95734.13;6955341;28;20301;-82
2021/05/27 08:46:06;;;;;;;2.53;1.70;;;;;;;10.93;76.17;95741.13;6972712;28;20232;-81
2021/05/27 08:49:26;;;;;;;3.20;2.00;;;;;;;10.94;76.20;95740.16;6991747;28;20233;-82
2021/05/27 08:52:47;;;;;;;3.10;1.83;;;;;;;10.90;75.32;95735.22;6967725;28;20211;-81
2021/05/27 08:56:07;;;;;;;3.23;1.83;;;;;;;10.95;76.35;95739.19;6958894;28;20607;-82
2021/05/27 08:59:28;;;;;;;3.03;1.60;;;;;;;11.05;76.33;95737.47;6985531;28;20236;-81
2021/05/27 09:02:56;;;;;;;3.90;1.90;;;;;;;11.04;75.24;95741.09;6980256;28;20231;-82
2021/05/27 09:06:17;;;;;;;3.63;2.00;;;;;;;11.05;75.30;95747.25;6977589;28;20211;-81
2021/05/27 09:09:50;;;;;;;3.77;3.30;;;;;;;11.04;75.08;95748.22;6976043;28;20658;-82
2021/05/27 09:13:13;;;;;;;1.90;1.80;;;;;;;11.09;75.61;95752.19;6981812;28;20219;-80
2021/05/27 09:16:37;;;;;;;2.70;2.00;;;;;;;11.14;74.48;95763.28;6958226;28;20225;-80
2021/05/27 09:20:16;;;;;;;2.07;1.90;;;;;;;11.24;74.82;95757.19;6944638;28;20282;-81
2021/05/27 09:23:56;;;;;;;1.53;1.43;;;;;;;11.43;75.45;95768.81;6947018;28;20242;-82
2021/05/27 09:27:17;;;;;;;1.13;1.03;;;;;;;11.56;74.66;95765.97;6953209;28;20210;-81
2021/05/27 09:30:43;;;;;;;1.87;1.33;;;;;;;11.72;73.80;95765.53;6970266;28;20226;-82
2021/05/27 09:34:08;;;;;;;1.23;1.13;;;;;;;11.88;73.49;95765.91;6977232;28;20207;-81
2021/05/27 09:37:31;;;;;;;1.40;1.30;;;;;;;12.05;73.61;95770.63;6957759;28;20301;-80
2021/05/27 09:40:52;;;;;;;1.83;1.60;;;;;;;12.25;73.55;95774.22;6950097;28;20365;-80
2021/05/27 09:44:13;;;;;;;2.13;1.77;;;;;;;12.36;72.41;95771.47;6952410;28;20214;-82
2021/05/27 09:47:36;;;;;;;2.47;1.67;;;;;;;12.47;72.45;95777.53;6967788;28;20899;-80
2021/05/27 09:50:59;;;;;;;2.67;1.17;;;;;;;12.63;71.08;95776.19;6966699;28;20244;-82
2021/05/27 09:54:20;;;;;;;2.57;1.33;;;;;;;13.06;70.84;95776.72;6964601;28;20208;-79
2021/05/27 09:57:42;;;;;;;10.40;1.50;;;;;;;13.49;69.57;95776.31;6961069;28;20270;-80
2021/05/27 10:01:07;;;;;;;1.40;1.30;;;;;;;13.73;68.06;95779.38;6943394;28;20207;-81
2021/05/27 10:04:28;;;;;;;1.40;1.30;;;;;;;14.28;67.36;95773.38;6945964;28;20256;-81
2021/05/27 10:07:52;;;;;;;2.27;1.70;;;;;;;14.48;64.62;95778.53;6953984;28;20295;-81
2021/05/27 10:11:12;;;;;;;90.73;4.87;;;;;;;14.47;63.62;95770.66;6951362;28;20216;-80
2021/05/27 10:14:35;;;;;;;2.13;1.10;;;;;;;14.41;63.06;95772.09;6958771;28;20583;-80
2021/05/27 10:18:00;;;;;;;1.10;1.00;;;;;;;14.40;63.25;95764.22;6978028;28;20249;-79
2021/05/27 10:21:22;;;;;;;2.37;1.10;;;;;;;14.44;62.17;95769.09;6983549;28;20229;-81
2021/05/27 10:24:46;;;;;;;5.30;1.70;;;;;;;14.58;61.50;95759.78;6966818;28;20236;-79
2021/05/27 10:28:10;;;;;;;1.13;0.90;;;;;;;15.48;60.59;95758.91;6959734;28;20203;-81
2021/05/27 10:31:36;;;;;;;3.37;1.03;;;;;;;15.80;60.27;95760.03;6959993;28;20275;-81
2021/05/27 10:34:57;;;;;;;7.77;1.33;;;;;;;16.60;59.02;95752.66;6956285;28;20705;-80
2021/05/27 10:38:38;;;;;;;3.43;1.30;;;;;;;17.95;56.96;95749.63;6960542;28;21106;-79
2021/05/27 10:41:59;;;;;;;2.43;0.90;;;;;;;18.77;55.05;95747.59;6957037;28;20230;-79
2021/05/27 10:45:19;;;;;;;2.90;1.17;;;;;;;19.08;54.47;95751.16;6923208;28;20276;-78
2021/05/27 10:48:42;;;;;;;1.60;1.40;;;;;;;19.07;51.40;95744.09;6946867;28;20250;-78
2021/05/27 10:52:24;;;;;;;1.27;1.17;;;;;;;19.14;50.12;95750.44;6941374;28;20284;-78
2021/05/27 10:55:57;;;;;;;1.20;1.03;;;;;;;18.69;48.71;95747.63;6964980;28;20215;-78
2021/05/27 10:59:20;;;;;;;5.97;1.67;;;;;;;18.25;49.83;95742.69;6971065;28;20215;-77
2021/05/27 11:02:40;;;;;;;1.20;1.10;;;;;;;17.76;49.04;95739.19;6987487;28;20206;-77
2021/05/27 11:06:17;;;;;;;1.80;1.20;;;;;;;17.50;49.83;95733.97;6953223;28;20217;-76
2021/05/27 11:09:37;;;;;;;1.97;1.10;;;;;;;17.43;50.69;95741.00;6956097;28;20235;-77
2021/05/27 11:13:02;;;;;;;2.23;1.63;;;;;;;17.34;50.48;95741.19;6946810;28;20216;-77
2021/05/27 11:16:23;;;;;;;2.13;1.30;;;;;;;17.06;49.77;95735.22;6954842;28;20298;-77
2021/05/27 11:19:50;;;;;;;1.50;1.30;;;;;;;16.72;50.98;95741.50;6944425;28;20232;-77
2021/05/27 11:23:18;;;;;;;1.43;1.20;;;;;;;16.53;50.78;95739.06;6969226;28;20229;-76
2021/05/27 11:26:39;;;;;;;1.73;1.00;;;;;;;16.41;51.12;95740.31;6956188;28;20251;-77
2021/05/27 11:30:17;;;;;;;1.97;1.30;;;;;;;16.22;50.48;95744.09;6967131;28;20207;-76
2021/05/27 11:33:39;;;;;;;1.47;1.10;;;;;;;16.08;50.65;95743.81;6942924;28;20245;-77
2021/05/27 11:36:59;;;;;;;1.43;1.20;;;;;;;15.99;50.46;95736.75;6940791;28;20207;-77
2021/05/27 11:40:22;;;;;;;1.43;1.00;;;;;;;16.06;51.56;95749.34;6969568;28;20223;-77
2021/05/27 11:43:47;;;;;;;2.33;1.30;;;;;;;16.07;50.88;95736.78;6964198;28;20207;-77
2021/05/27 11:47:14;;;;;;;2.00;1.30;;;;;;;16.05;50.50;95734.25;6963851;28;20203;-77
2021/05/27 11:50:35;;;;;;;2.13;1.10;;;;;;;16.02;50.34;95737.25;6955011;28;20210;-77
2021/05/27 11:54:07;;;;;;;2.63;1.00;;;;;;;15.99;50.56;95737.59;6952970;28;20216;-77
2021/05/27 11:57:49;;;;;;;1.70;0.90;;;;;;;15.98;50.32;95730.53;6945070;28;20660;-77
2021/05/27 12:01:12;;;;;;;1.10;1.00;;;;;;;15.96;50.38;95727.16;6980754;28;20207;-76
2021/05/27 12:04:33;;;;;;;1.77;1.50;;;;;;;16.01;50.21;95734.72;6982149;28;20709;-78
2021/05/27 12:08:13;;;;;;;6.00;1.10;;;;;;;16.12;51.63;95732.63;6962584;28;20211;-78
2021/05/27 12:11:34;;;;;;;3.03;1.20;;;;;;;16.25;51.17;95726.84;6956140;28;20383;-78
2021/05/27 12:15:08;;;;;;;1.50;1.00;;;;;;;16.25;50.16;95726.84;6979381;28;20215;-77
2021/05/27 12:18:29;;;;;;;2.43;1.13;;;;;;;16.24;49.76;95725.19;6952790;28;20292;-78
2021/05/27 12:21:55;;;;;;;1.40;1.17;;;;;;;16.16;49.23;95723.28;6983651;28;20206;-78
2021/05/27 12:25:18;;;;;;;4.47;1.03;;;;;;;16.17;49.68;95726.81;6963520;28;20306;-78
2021/05/27 12:28:39;;;;;;;2.17;1.03;;;;;;;16.30;48.98;95716.47;6991304;28;20214;-78
2021/05/27 12:32:01;;;;;;;1.13;0.90;;;;;;;16.42;49.05;95717.88;6964525;28;20215;-77
2021/05/27 12:35:23;;;;;;;2.10;1.20;;;;;;;16.41;47.86;95718.03;6948843;28;20226;-78
2021/05/27 12:38:44;;;;;;;5.13;1.10;;;;;;;16.50;49.51;95720.59;6975367;28;20368;-78
2021/05/27 12:42:07;;;;;;;2.80;1.30;;;;;;;16.58;49.00;95717.13;6979380;28;20217;-77
2021/05/27 12:45:39;;;;;;;2.37;1.23;;;;;;;16.62;48.13;95724.72;6971041;28;20207;-78
2021/05/27 12:48:59;;;;;;;1.67;0.90;;;;;;;16.69;47.24;95723.06;6955980;28;20286;-77
2021/05/27 12:52:40;;;;;;;1.73;1.00;;;;;;;16.84;47.79;95717.06;6955162;28;20212;-78
2021/05/27 12:56:24;;;;;;;2.83;0.70;;;;;;;16.92;47.61;95715.25;6965278;28;20215;-77
2021/05/27 12:59:55;;;;;;;2.47;0.73;;;;;;;17.04;47.86;95716.63;6968332;28;20230;-78
2021/05/27 13:03:17;;;;;;;2.83;0.97;;;;;;;17.15;47.45;95720.84;6949683;28;20215;-78
2021/05/27 13:06:38;;;;;;;0.90;0.90;;;;;;;17.07;44.81;95713.63;6965790;28;20223;-78
2021/05/27 13:10:01;;;;;;;2.30;1.00;;;;;;;17.13;45.58;95709.44;6949636;28;20218;-77
2021/05/27 13:13:31;;;;;;;1.83;1.00;;;;;;;17.21;46.74;95712.13;6964316;28;20223;-77
2021/05/27 13:16:55;;;;;;;2.93;0.93;;;;;;;17.22;45.66;95715.66;6955588;28;20264;-77
2021/05/27 13:20:16;;;;;;;1.93;0.97;;;;;;;17.24;45.87;95721.69;6945008;28;20203;-78
2021/05/27 13:23:38;;;;;;;1.43;1.00;;;;;;;17.33;45.56;95715.31;6954295;28;20218;-78
2021/05/27 13:27:26;;;;;;;7.17;1.00;;;;;;;17.44;45.42;95721.22;6966925;28;20215;-78
2021/05/27 13:30:49;;;;;;;8.03;1.10;;;;;;;17.47;44.61;95712.81;6967856;28;20217;-79
2021/05/27 13:34:10;;;;;;;0.93;0.87;;;;;;;17.45;43.20;95714.00;6955621;28;20211;-77
2021/05/27 13:37:40;;;;;;;3.17;1.20;;;;;;;17.45;44.43;95727.44;6952685;28;20221;-77
2021/05/27 13:41:01;;;;;;;2.40;0.97;;;;;;;17.56;45.06;95735.13;6961909;28;20238;-79
2021/05/27 13:44:24;;;;;;;1.67;1.00;;;;;;;17.63;42.82;95720.06;6962695;28;20231;-77
2021/05/27 13:47:45;;;;;;;1.87;1.07;;;;;;;17.61;41.85;95727.44;6958135;28;20279;-77
2021/05/27 13:51:08;;;;;;;1.77;0.83;;;;;;;17.67;42.48;95734.00;6941829;28;20207;-77
2021/05/27 13:54:31;;;;;;;1.07;0.80;;;;;;;17.81;42.68;95719.88;6946460;28;20214;-77
2021/05/27 13:57:52;;;;;;;1.50;0.83;;;;;;;17.91;41.95;95728.63;6959682;28;20215;-79
2021/05/27 14:01:14;;;;;;;2.30;1.00;;;;;;;17.89;40.88;95725.28;6979755;28;20214;-77
2021/05/27 14:04:35;;;;;;;2.00;0.90;;;;;;;17.93;41.32;95721.22;6953665;28;20211;-77
2021/05/27 14:07:55;;;;;;;2.07;1.00;;;;;;;18.02;42.45;95728.28;6939144;28;20224;-77
2021/05/27 14:11:18;;;;;;;0.83;0.83;;;;;;;18.11;42.68;95727.25;6948744;28;20204;-78
2021/05/27 14:14:39;;;;;;;3.97;0.97;;;;;;;18.23;42.76;95728.56;6960107;28;20303;-78
2021/05/27 14:17:59;;;;;;;1.10;0.80;;;;;;;18.22;39.98;95729.56;6958337;28;20200;-77
2021/05/27 14:21:22;;;;;;;1.60;0.97;;;;;;;18.08;39.84;95726.75;6940057;28;20207;-78
2021/05/27 14:24:42;;;;;;;2.10;0.90;;;;;;;18.10;39.89;95716.69;6955266;28;20259;-78
2021/05/27 14:28:03;;;;;;;5.63;1.20;;;;;;;18.11;39.87;95719.19;6960336;28;20206;-78
2021/05/27 14:31:23;;;;;;;1.90;0.97;;;;;;;18.17;40.03;95723.03;6953639;28;20215;-78
2021/05/27 14:34:44;;;;;;;4.20;1.10;;;;;;;18.24;39.10;95721.34;6943443;28;20228;-78
2021/05/27 14:38:04;;;;;;;0.97;0.90;;;;;;;18.19;38.12;95719.19;6951868;28;20215;-78
2021/05/27 14:41:25;;;;;;;8.73;1.67;;;;;;;18.20;39.03;95715.50;6956564;28;20234;-77
2021/05/27 14:44:48;;;;;;;3.50;1.03;;;;;;;18.20;38.00;95718.19;6966445;28;20346;-78
2021/05/27 14:48:08;;;;;;;1.20;0.97;;;;;;;18.20;38.45;95715.50;6942041;28;20219;-78
2021/05/27 14:51:28;;;;;;;1.23;0.80;;;;;;;18.19;37.85;95718.34;6941464;28;20212;-77
2021/05/27 14:54:51;;;;;;;1.33;1.10;;;;;;;18.19;38.42;95721.88;6969375;28;20301;-77
2021/05/27 14:58:12;;;;;;;1.77;1.20;;;;;;;18.08;38.11;95716.84;6948454;28;20230;-77
2021/05/27 15:01:35;;;;;;;1.20;0.90;;;;;;;17.99;37.46;95713.34;6981049;28;20202;-77
2021/05/27 15:04:55;;;;;;;1.70;0.90;;;;;;;17.87;37.58;95713.84;6967632;28;20250;-77
2021/05/27 15:08:15;;;;;;;1.63;1.00;;;;;;;17.85;39.06;95716.72;6957425;28;20589;-78
2021/05/27 15:11:36;;;;;;;3.00;1.10;;;;;;;17.86;38.42;95722.91;6935724;28;20269;-75
2021/05/27 15:14:57;;;;;;;1.40;1.00;;;;;;;17.78;38.56;95712.19;6958467;28;20737;-78
2021/05/27 15:18:17;;;;;;;1.50;0.90;;;;;;;17.73;39.37;95722.59;6943032;28;20224;-78
2021/05/27 15:21:38;;;;;;;1.00;0.90;;;;;;;17.72;39.49;95719.06;6969792;28;20247;-77
2021/05/27 15:24:58;;;;;;;1.13;0.90;;;;;;;17.70;38.36;95718.41;6930364;28;20223;-78
2021/05/27 15:28:19;;;;;;;1.07;0.80;;;;;;;17.67;38.69;95717.88;6962270;28;20222;-77
2021/05/27 15:31:42;;;;;;;2.20;0.90;;;;;;;17.69;39.14;95711.34;6975993;28;20222;-78
2021/05/27 15:35:04;;;;;;;2.70;0.90;;;;;;;17.77;39.14;95714.03;6963291;28;20675;-78
2021/05/27 15:38:24;;;;;;;3.23;1.83;;;;;;;17.71;38.39;95712.00;6956610;28;20211;-78
2021/05/27 15:41:47;;;;;;;1.53;1.00;;;;;;;17.67;38.58;95707.13;6958242;28;20699;-77
2021/05/27 15:45:11;;;;;;;1.60;1.17;;;;;;;17.70;39.34;95710.34;6944971;28;20230;-78
2021/05/27 15:48:31;;;;;;;1.60;0.90;;;;;;;17.81;39.46;95709.13;6945204;28;20206;-78
2021/05/27 15:51:54;;;;;;;0.70;0.70;;;;;;;17.81;38.59;95701.94;6957400;28;20218;-77
2021/05/27 15:55:15;;;;;;;1.43;0.83;;;;;;;17.74;37.92;95700.94;6957273;28;20300;-78
2021/05/27 15:58:36;;;;;;;2.80;1.00;;;;;;;17.70;38.08;95704.97;6962719;28;20655;-78
2021/05/27 16:01:56;;;;;;;1.77;0.97;;;;;;;17.68;37.60;95706.97;6954876;28;20302;-77
2021/05/27 16:05:21;;;;;;;1.17;0.87;;;;;;;17.71;38.68;95703.94;6963878;28;20212;-77